sensor_id;sensor_type;location;lat;lon;timestamp;pressure;altitude;pressure_sealevel;temperature;humidity
18201;BME280;9226;47.858;9.594;2022-10-19T00:00:09;96106.91;;;16.07;79.85
18201;BME280;9226;47.858;9.594;2022-10-19T00:02:35;96110.00;;;16.12;78.74
18201;BME280;9226;47.858;9.594;2022-10-19T00:05:01;96112.81;;;16.10;79.22
18201;BME280;9226;47.858;9.594;2022-10-19T00:07:26;96105.34;;;16.04;80.10
18201;BME280;9226;47.858;9.594;2022-10-19T00:09:52;96111.69;;;16.03;79.99
18201;BME280;9226;47.858;9.594;2022-10-19T00:12:18;96113.81;;;16.00;79.84
18201;BME280;9226;47.858;9.594;2022-10-19T00:14:44;96107.47;;;16.01;79.82
18201;BME280;9226;47.858;9.594;2022-10-19T00:17:09;96112.41;;;15.96;80.35
18201;BME280;9226;47.858;9.594;2022-10-19T00:19:34;96105.22;;;15.96;80.06
18201;BME280;9226;47.858;9.594;2022-10-19T00:22:00;96111.56;;;15.95;80.23
18201;BME280;9226;47.858;9.594;2022-10-19T00:24:25;96099.88;;;15.96;79.96
18201;BME280;9226;47.858;9.594;2022-10-19T00:26:51;96113.25;;;15.96;79.76
18201;BME280;9226;47.858;9.594;2022-10-19T00:29:16;96098.16;;;15.95;79.43
18201;BME280;9226;47.858;9.594;2022-10-19T00:31:42;96100.84;;;15.95;79.71
18201;BME280;9226;47.858;9.594;2022-10-19T00:34:07;96100.00;;;15.95;79.53
18201;BME280;9226;47.858;9.594;2022-10-19T00:36:36;96100.72;;;15.97;78.85
18201;BME280;9226;47.858;9.594;2022-10-19T00:39:07;96101.56;;;15.97;79.07
18201;BME280;9226;47.858;9.594;2022-10-19T00:41:34;96089.16;;;15.96;78.81
18201;BME280;9226;47.858;9.594;2022-10-19T00:44:53;96091.44;;;15.91;79.03
18201;BME280;9226;47.858;9.594;2022-10-19T00:46:51;96093.09;;;15.92;78.85
18201;BME280;9226;47.858;9.594;2022-10-19T00:49:26;96086.91;;;15.91;79.39
18201;BME280;9226;47.858;9.594;2022-10-19T00:51:56;96084.38;;;15.90;79.53
18201;BME280;9226;47.858;9.594;2022-10-19T00:54:22;96081.84;;;15.88;79.48
18201;BME280;9226;47.858;9.594;2022-10-19T00:56:51;96080.16;;;15.87;79.69
18201;BME280;9226;47.858;9.594;2022-10-19T00:59:19;96081.00;;;15.88;79.68
18201;BME280;9226;47.858;9.594;2022-10-19T01:01:45;96085.50;;;15.87;79.89
18201;BME280;9226;47.858;9.594;2022-10-19T01:04:12;96073.97;;;15.87;79.42
18201;BME280;9226;47.858;9.594;2022-10-19T01:06:39;96073.81;;;15.88;79.11
18201;BME280;9226;47.858;9.594;2022-10-19T01:09:06;96075.66;;;15.88;79.13
18201;BME280;9226;47.858;9.594;2022-10-19T01:17:10;96058.31;;;15.82;78.84
18201;BME280;9226;47.858;9.594;2022-10-19T01:20:06;96058.75;;;15.78;79.01
18201;BME280;9226;47.858;9.594;2022-10-19T01:28:16;96053.25;;;15.69;79.00
18201;BME280;9226;47.858;9.594;2022-10-19T01:36:42;96051.13;;;15.53;80.91
18201;BME280;9226;47.858;9.594;2022-10-19T01:39:18;96044.94;;;15.53;80.46
18201;BME280;9226;47.858;9.594;2022-10-19T01:41:50;96048.88;;;15.49;80.71
18201;BME280;9226;47.858;9.594;2022-10-19T01:47:05;96044.63;;;15.46;80.37
18201;BME280;9226;47.858;9.594;2022-10-19T01:49:54;96043.53;;;15.49;79.94
18201;BME280;9226;47.858;9.594;2022-10-19T01:52:22;96046.34;;;15.47;79.88
18201;BME280;9226;47.858;9.594;2022-10-19T01:54:52;96040.72;;;15.41;80.44
18201;BME280;9226;47.858;9.594;2022-10-19T01:57:23;96041.00;;;15.37;80.67
18201;BME280;9226;47.858;9.594;2022-10-19T01:59:52;96040.16;;;15.37;80.33
18201;BME280;9226;47.858;9.594;2022-10-19T02:02:19;96037.63;;;15.35;80.44
18201;BME280;9226;47.858;9.594;2022-10-19T02:04:47;96035.22;;;15.32;80.67
18201;BME280;9226;47.858;9.594;2022-10-19T02:07:14;96029.44;;;15.27;81.14
18201;BME280;9226;47.858;9.594;2022-10-19T02:09:40;96028.88;;;15.24;81.40
18201;BME280;9226;47.858;9.594;2022-10-19T02:12:08;96032.25;;;15.26;81.46
18201;BME280;9226;47.858;9.594;2022-10-19T02:14:43;96039.84;;;15.20;82.47
18201;BME280;9226;47.858;9.594;2022-10-19T02:17:14;96042.50;;;15.20;82.14
18201;BME280;9226;47.858;9.594;2022-10-19T02:19:40;96027.44;;;15.19;82.65
18201;BME280;9226;47.858;9.594;2022-10-19T02:22:07;96027.59;;;15.18;82.93
18201;BME280;9226;47.858;9.594;2022-10-19T02:24:32;96028.03;;;15.23;81.97
18201;BME280;9226;47.858;9.594;2022-10-19T02:26:58;96040.41;;;15.24;82.03
18201;BME280;9226;47.858;9.594;2022-10-19T02:29:25;96034.22;;;15.24;82.03
18201;BME280;9226;47.858;9.594;2022-10-19T02:31:51;96027.75;;;15.26;81.53
18201;BME280;9226;47.858;9.594;2022-10-19T02:34:17;96019.88;;;15.25;81.88
18201;BME280;9226;47.858;9.594;2022-10-19T02:36:43;96021.00;;;15.22;81.92
18201;BME280;9226;47.858;9.594;2022-10-19T02:39:08;96024.63;;;15.21;81.89
18201;BME280;9226;47.858;9.594;2022-10-19T02:47:26;96021.28;;;15.19;81.49
18201;BME280;9226;47.858;9.594;2022-10-19T02:49:50;96027.75;;;15.16;81.54
18201;BME280;9226;47.858;9.594;2022-10-19T02:52:16;96021.13;;;15.11;82.08
18201;BME280;9226;47.858;9.594;2022-10-19T02:54:43;96007.47;;;15.14;81.80
18201;BME280;9226;47.858;9.594;2022-10-19T02:57:20;96007.47;;;15.14;82.02
18201;BME280;9226;47.858;9.594;2022-10-19T02:59:46;96011.13;;;15.13;81.85
18201;BME280;9226;47.858;9.594;2022-10-19T03:02:13;96013.25;;;15.09;82.17
18201;BME280;9226;47.858;9.594;2022-10-19T03:04:40;96013.25;;;15.09;81.26
18201;BME280;9226;47.858;9.594;2022-10-19T03:07:07;96002.69;;;15.08;80.80
18201;BME280;9226;47.858;9.594;2022-10-19T03:09:35;96002.84;;;15.06;80.44
18201;BME280;9226;47.858;9.594;2022-10-19T03:12:00;96004.94;;;15.02;80.80
18201;BME280;9226;47.858;9.594;2022-10-19T03:14:26;96002.41;;;15.01;80.25
18201;BME280;9226;47.858;9.594;2022-10-19T03:16:51;96005.50;;;14.96;80.96
18201;BME280;9226;47.858;9.594;2022-10-19T03:19:17;96009.41;;;14.92;80.85
18201;BME280;9226;47.858;9.594;2022-10-19T03:21:42;96018.44;;;14.91;80.63
18201;BME280;9226;47.858;9.594;2022-10-19T03:24:08;96008.00;;;14.88;80.51
18201;BME280;9226;47.858;9.594;2022-10-19T03:26:33;96003.63;;;14.87;80.60
18201;BME280;9226;47.858;9.594;2022-10-19T03:28:59;96006.59;;;14.84;81.04
18201;BME280;9226;47.858;9.594;2022-10-19T03:31:24;96004.59;;;14.76;82.04
18201;BME280;9226;47.858;9.594;2022-10-19T03:33:51;96003.06;;;14.74;81.69
18201;BME280;9226;47.858;9.594;2022-10-19T03:36:25;95999.66;;;14.72;82.26
18201;BME280;9226;47.858;9.594;2022-10-19T03:38:56;96006.56;;;14.64;82.91
18201;BME280;9226;47.858;9.594;2022-10-19T03:41:24;96006.94;;;14.60;83.68
18201;BME280;9226;47.858;9.594;2022-10-19T03:43:50;96001.72;;;14.58;83.71
18201;BME280;9226;47.858;9.594;2022-10-19T03:46:16;96005.13;;;14.60;83.51
18201;BME280;9226;47.858;9.594;2022-10-19T03:48:43;96003.34;;;14.50;84.82
18201;BME280;9226;47.858;9.594;2022-10-19T03:51:14;95993.28;;;14.53;84.02
18201;BME280;9226;47.858;9.594;2022-10-19T03:53:40;95992.53;;;14.51;84.41
18201;BME280;9226;47.858;9.594;2022-10-19T03:56:12;95995.75;;;14.45;85.40
18201;BME280;9226;47.858;9.594;2022-10-19T03:58:39;95994.09;;;14.44;85.26
18201;BME280;9226;47.858;9.594;2022-10-19T04:01:11;95997.44;;;14.46;85.05
18201;BME280;9226;47.858;9.594;2022-10-19T04:03:37;96000.81;;;14.48;84.74
18201;BME280;9226;47.858;9.594;2022-10-19T04:06:05;95999.16;;;14.47;84.64
18201;BME280;9226;47.858;9.594;2022-10-19T04:08:30;95998.41;;;14.45;84.71
18201;BME280;9226;47.858;9.594;2022-10-19T04:11:01;95999.41;;;14.44;85.04
18201;BME280;9226;47.858;9.594;2022-10-19T04:13:26;95998.28;;;14.46;84.29
18201;BME280;9226;47.858;9.594;2022-10-19T04:15:52;95998.69;;;14.42;84.72
18201;BME280;9226;47.858;9.594;2022-10-19T04:18:17;95998.41;;;14.45;84.46
18201;BME280;9226;47.858;9.594;2022-10-19T04:20:43;95997.44;;;14.46;83.97
18201;BME280;9226;47.858;9.594;2022-10-19T04:23:08;96006.56;;;14.43;84.38
18201;BME280;9226;47.858;9.594;2022-10-19T04:25:34;95998.28;;;14.46;83.58
18201;BME280;9226;47.858;9.594;2022-10-19T04:27:59;95998.00;;;14.40;84.41
18201;BME280;9226;47.858;9.594;2022-10-19T04:30:25;96002.50;;;14.39;84.59
18201;BME280;9226;47.858;9.594;2022-10-19T04:32:50;96003.03;;;14.33;85.18
18201;BME280;9226;47.858;9.594;2022-10-19T04:35:16;96005.13;;;14.29;85.49
18201;BME280;9226;47.858;9.594;2022-10-19T04:37:41;96006.78;;;14.30;85.37
18201;BME280;9226;47.858;9.594;2022-10-19T04:40:07;96005.13;;;14.29;85.39
18201;BME280;9226;47.858;9.594;2022-10-19T04:42:33;96013.66;;;14.23;86.36
18201;BME280;9226;47.858;9.594;2022-10-19T04:45:00;96002.72;;;14.26;85.72
18201;BME280;9226;47.858;9.594;2022-10-19T04:47:25;96005.84;;;14.32;84.89
18201;BME280;9226;47.858;9.594;2022-10-19T04:49:50;96003.28;;;14.30;85.46
18201;BME280;9226;47.858;9.594;2022-10-19T04:52:16;95999.50;;;14.33;84.93
18201;BME280;9226;47.858;9.594;2022-10-19T04:54:41;95991.34;;;14.34;85.27
18201;BME280;9226;47.858;9.594;2022-10-19T04:57:07;95992.63;;;14.30;86.40
18201;BME280;9226;47.858;9.594;2022-10-19T04:59:32;95993.31;;;14.32;85.84
18201;BME280;9226;47.858;9.594;2022-10-19T05:01:58;95984.75;;;14.28;85.66
18201;BME280;9226;47.858;9.594;2022-10-19T05:04:23;95988.34;;;14.18;87.48
18201;BME280;9226;47.858;9.594;2022-10-19T05:06:48;95982.44;;;14.14;87.77
18201;BME280;9226;47.858;9.594;2022-10-19T05:09:14;95986.13;;;14.23;86.24
18201;BME280;9226;47.858;9.594;2022-10-19T05:11:39;95979.25;;;14.20;86.62
18201;BME280;9226;47.858;9.594;2022-10-19T05:14:05;95975.84;;;14.18;87.34
18201;BME280;9226;47.858;9.594;2022-10-19T05:16:30;95973.16;;;14.18;87.17
18201;BME280;9226;47.858;9.594;2022-10-19T05:18:56;95966.69;;;14.11;87.76
18201;BME280;9226;47.858;9.594;2022-10-19T05:21:24;95965.00;;;14.10;87.87
18201;BME280;9226;47.858;9.594;2022-10-19T05:23:52;95968.78;;;14.07;88.47
18201;BME280;9226;47.858;9.594;2022-10-19T05:26:20;95967.53;;;14.11;87.88
18201;BME280;9226;47.858;9.594;2022-10-19T05:28:47;95956.56;;;14.05;88.81
18201;BME280;9226;47.858;9.594;2022-10-19T05:31:15;95964.41;;;14.06;88.64
18201;BME280;9226;47.858;9.594;2022-10-19T05:33:42;95961.59;;;13.98;89.96
18201;BME280;9226;47.858;9.594;2022-10-19T05:36:17;95958.50;;;14.03;89.78
18201;BME280;9226;47.858;9.594;2022-10-19T05:38:44;95960.19;;;14.04;89.93
18201;BME280;9226;47.858;9.594;2022-10-19T05:41:10;95958.50;;;14.03;90.50
18201;BME280;9226;47.858;9.594;2022-10-19T05:43:36;95955.19;;;14.10;90.20
18201;BME280;9226;47.858;9.594;2022-10-19T05:46:04;95954.31;;;14.10;89.98
18201;BME280;9226;47.858;9.594;2022-10-19T05:48:30;95955.03;;;14.12;90.45
18201;BME280;9226;47.858;9.594;2022-10-19T05:50:59;95948.72;;;14.13;90.68
18201;BME280;9226;47.858;9.594;2022-10-19T05:53:30;95958.00;;;14.09;91.09
18201;BME280;9226;47.858;9.594;2022-10-19T05:55:56;95967.97;;;14.17;90.86
18201;BME280;9226;47.858;9.594;2022-10-19T05:58:23;95966.69;;;14.11;91.48
18201;BME280;9226;47.858;9.594;2022-10-19T06:00:56;95965.25;;;14.07;91.97
18201;BME280;9226;47.858;9.594;2022-10-19T06:03:23;95970.19;;;14.11;91.68
18201;BME280;9226;47.858;9.594;2022-10-19T06:05:49;95973.31;;;14.17;91.13
18201;BME280;9226;47.858;9.594;2022-10-19T06:08:18;95976.22;;;14.14;92.19
18201;BME280;9226;47.858;9.594;2022-10-19T06:10:44;95979.09;;;14.22;91.53
18201;BME280;9226;47.858;9.594;2022-10-19T06:13:11;95985.16;;;14.24;91.82
18201;BME280;9226;47.858;9.594;2022-10-19T06:15:36;95979.13;;;14.32;91.09
18201;BME280;9226;47.858;9.594;2022-10-19T06:18:08;95974.38;;;14.35;91.29
18201;BME280;9226;47.858;9.594;2022-10-19T06:20:35;95981.81;;;14.32;91.85
18201;BME280;9226;47.858;9.594;2022-10-19T06:23:01;95983.66;;;14.41;91.19
18201;BME280;9226;47.858;9.594;2022-10-19T06:25:27;95987.47;;;14.48;91.00
18201;BME280;9226;47.858;9.594;2022-10-19T06:27:53;95986.50;;;14.49;91.46
18201;BME280;9226;47.858;9.594;2022-10-19T06:30:19;95995.38;;;14.59;90.74
18201;BME280;9226;47.858;9.594;2022-10-19T06:32:44;95987.38;;;14.59;91.04
18201;BME280;9226;47.858;9.594;2022-10-19T06:35:09;95983.84;;;14.59;91.43
18201;BME280;9226;47.858;9.594;2022-10-19T06:37:35;95980.25;;;14.60;92.18
18201;BME280;9226;47.858;9.594;2022-10-19T06:40:00;95978.84;;;14.75;90.38
18201;BME280;9226;47.858;9.594;2022-10-19T06:42:26;95979.97;;;14.63;92.54
18201;BME280;9226;47.858;9.594;2022-10-19T06:44:51;95991.38;;;14.75;91.51
18201;BME280;9226;47.858;9.594;2022-10-19T06:47:16;95993.94;;;14.86;90.86
18201;BME280;9226;47.858;9.594;2022-10-19T06:49:42;96001.94;;;14.86;91.23
18201;BME280;9226;47.858;9.594;2022-10-19T06:52:08;96000.97;;;14.97;90.29
18201;BME280;9226;47.858;9.594;2022-10-19T06:54:34;95993.69;;;15.09;89.43
18201;BME280;9226;47.858;9.594;2022-10-19T06:56:59;95999.44;;;14.94;91.10
18201;BME280;9226;47.858;9.594;2022-10-19T06:59:24;96006.19;;;14.98;91.23
18201;BME280;9226;47.858;9.594;2022-10-19T07:01:50;95999.59;;;15.02;90.90
18201;BME280;9226;47.858;9.594;2022-10-19T07:04:15;96006.63;;;15.04;91.38
18201;BME280;9226;47.858;9.594;2022-10-19T07:06:41;96000.16;;;15.16;90.63
18201;BME280;9226;47.858;9.594;2022-10-19T07:09:06;96010.00;;;15.06;91.89
18201;BME280;9226;47.858;9.594;2022-10-19T07:11:31;96000.44;;;15.23;90.12
18201;BME280;9226;47.858;9.594;2022-10-19T07:13:57;95996.66;;;15.25;90.42
18201;BME280;9226;47.858;9.594;2022-10-19T07:16:22;96003.94;;;15.04;92.53
18201;BME280;9226;47.858;9.594;2022-10-19T07:18:50;96002.28;;;15.22;90.98
18201;BME280;9226;47.858;9.594;2022-10-19T07:21:16;96006.34;;;15.07;92.35
18201;BME280;9226;47.858;9.594;2022-10-19T07:23:43;96005.50;;;15.06;92.17
18201;BME280;9226;47.858;9.594;2022-10-19T07:26:15;96007.75;;;15.11;92.30
18201;BME280;9226;47.858;9.594;2022-10-19T07:28:42;96007.22;;;15.17;92.35
18201;BME280;9226;47.858;9.594;2022-10-19T07:31:11;96019.69;;;15.07;92.57
18201;BME280;9226;47.858;9.594;2022-10-19T07:33:37;96009.88;;;15.27;91.49
18201;BME280;9226;47.858;9.594;2022-10-19T07:36:05;96019.00;;;15.24;91.89
18201;BME280;9226;47.858;9.594;2022-10-19T07:38:31;96015.38;;;15.35;91.06
18201;BME280;9226;47.858;9.594;2022-10-19T07:41:08;96014.94;;;15.20;92.27
18201;BME280;9226;47.858;9.594;2022-10-19T07:43:34;96007.22;;;15.17;92.20
18201;BME280;9226;47.858;9.594;2022-10-19T07:46:01;96012.22;;;15.00;93.29
18201;BME280;9226;47.858;9.594;2022-10-19T07:48:28;96017.44;;;14.92;94.19
18201;BME280;9226;47.858;9.594;2022-10-19T07:50:53;96012.09;;;14.92;93.65
18201;BME280;9226;47.858;9.594;2022-10-19T07:53:19;96009.75;;;15.09;93.46
18201;BME280;9226;47.858;9.594;2022-10-19T07:55:45;96020.44;;;15.09;92.77
18201;BME280;9226;47.858;9.594;2022-10-19T07:58:12;96012.69;;;15.06;92.58
18201;BME280;9226;47.858;9.594;2022-10-19T08:00:37;96013.53;;;15.16;92.44
18201;BME280;9226;47.858;9.594;2022-10-19T08:03:03;96012.28;;;15.20;92.72
18201;BME280;9226;47.858;9.594;2022-10-19T08:05:31;96008.59;;;15.21;91.33
18201;BME280;9226;47.858;9.594;2022-10-19T08:07:56;96011.16;;;15.32;91.40
18201;BME280;9226;47.858;9.594;2022-10-19T08:10:22;96014.38;;;15.46;90.92
18201;BME280;9226;47.858;9.594;2022-10-19T08:12:47;96017.06;;;15.26;92.78
18201;BME280;9226;47.858;9.594;2022-10-19T08:15:13;96016.78;;;15.49;90.91
18201;BME280;9226;47.858;9.594;2022-10-19T08:17:38;96012.56;;;15.36;91.92
18201;BME280;9226;47.858;9.594;2022-10-19T08:20:06;96012.69;;;15.45;91.21
18201;BME280;9226;47.858;9.594;2022-10-19T08:22:31;96012.13;;;15.41;91.00
18201;BME280;9226;47.858;9.594;2022-10-19T08:24:58;96010.88;;;15.35;91.82
18201;BME280;9226;47.858;9.594;2022-10-19T08:27:24;96014.66;;;15.52;90.68
18201;BME280;9226;47.858;9.594;2022-10-19T08:29:49;96016.50;;;15.52;90.84
18201;BME280;9226;47.858;9.594;2022-10-19T08:32:16;96013.97;;;15.41;91.88
18201;BME280;9226;47.858;9.594;2022-10-19T08:34:42;96014.66;;;15.23;91.86
18201;BME280;9226;47.858;9.594;2022-10-19T08:37:07;96010.31;;;15.61;90.49
18201;BME280;9226;47.858;9.594;2022-10-19T08:39:33;96006.63;;;15.62;90.55
18201;BME280;9226;47.858;9.594;2022-10-19T08:42:07;95999.03;;;15.67;90.21
18201;BME280;9226;47.858;9.594;2022-10-19T08:44:52;96004.69;;;15.54;90.69
18201;BME280;9226;47.858;9.594;2022-10-19T08:53:09;95998.63;;;15.82;89.84
18201;BME280;9226;47.858;9.594;2022-10-19T09:01:45;95994.53;;;15.58;90.71
18201;BME280;9226;47.858;9.594;2022-10-19T09:04:37;96002.16;;;15.53;91.32
18201;BME280;9226;47.858;9.594;2022-10-19T09:09:43;95990.88;;;15.79;90.68
18201;BME280;9226;47.858;9.594;2022-10-19T09:12:15;95996.19;;;15.98;89.35
18201;BME280;9226;47.858;9.594;2022-10-19T09:15:12;95995.25;;;15.80;90.20
18201;BME280;9226;47.858;9.594;2022-10-19T09:17:37;95998.03;;;15.68;89.78
18201;BME280;9226;47.858;9.594;2022-10-19T09:22:43;95995.94;;;15.82;89.79
18201;BME280;9226;47.858;9.594;2022-10-19T09:25:14;95994.81;;;15.84;89.60
18201;BME280;9226;47.858;9.594;2022-10-19T09:27:46;95993.69;;;15.87;89.04
18201;BME280;9226;47.858;9.594;2022-10-19T09:30:17;95990.44;;;15.93;88.59
18201;BME280;9226;47.858;9.594;2022-10-19T09:32:43;95988.06;;;15.80;88.92
18201;BME280;9226;47.858;9.594;2022-10-19T09:35:24;95980.56;;;15.94;88.22
18201;BME280;9226;47.858;9.594;2022-10-19T09:37:51;95981.53;;;16.02;88.99
18201;BME280;9226;47.858;9.594;2022-10-19T09:40:22;95979.41;;;16.06;87.70
18201;BME280;9226;47.858;9.594;2022-10-19T09:42:48;95976.19;;;16.02;89.06
18201;BME280;9226;47.858;9.594;2022-10-19T09:51:02;95966.13;;;16.14;87.99
18201;BME280;9226;47.858;9.594;2022-10-19T09:53:34;95974.50;;;16.01;88.90
18201;BME280;9226;47.858;9.594;2022-10-19T09:56:07;95973.41;;;15.94;89.03
18201;BME280;9226;47.858;9.594;2022-10-19T09:58:46;95981.44;;;15.94;89.12
18201;BME280;9226;47.858;9.594;2022-10-19T10:04:04;95975.34;;;16.39;87.92
18201;BME280;9226;47.858;9.594;2022-10-19T10:06:30;95971.38;;;16.43;87.02
18201;BME280;9226;47.858;9.594;2022-10-19T10:08:55;95971.31;;;16.25;87.28
18201;BME280;9226;47.858;9.594;2022-10-19T10:11:26;95972.03;;;16.27;88.06
18201;BME280;9226;47.858;9.594;2022-10-19T10:13:54;95967.81;;;16.53;87.09
18201;BME280;9226;47.858;9.594;2022-10-19T10:16:22;95962.16;;;16.56;87.32
18201;BME280;9226;47.858;9.594;2022-10-19T10:18:53;95959.66;;;16.72;86.14
18201;BME280;9226;47.858;9.594;2022-10-19T10:21:25;95968.00;;;16.69;84.89
18201;BME280;9226;47.858;9.594;2022-10-19T10:26:39;95961.09;;;16.67;85.40
18201;BME280;9226;47.858;9.594;2022-10-19T10:29:25;95963.94;;;16.93;85.53
18201;BME280;9226;47.858;9.594;2022-10-19T10:31:54;95956.91;;;17.28;83.68
18201;BME280;9226;47.858;9.594;2022-10-19T10:34:31;95955.63;;;17.32;83.32
18201;BME280;9226;47.858;9.594;2022-10-19T10:36:57;95942.31;;;17.48;82.90
18201;BME280;9226;47.858;9.594;2022-10-19T10:39:24;95950.22;;;17.14;82.69
18201;BME280;9226;47.858;9.594;2022-10-19T10:41:51;95950.09;;;17.15;82.94
18201;BME280;9226;47.858;9.594;2022-10-19T10:44:26;95944.72;;;17.15;83.73
18201;BME280;9226;47.858;9.594;2022-10-19T10:46:59;95942.19;;;17.32;82.50
18201;BME280;9226;47.858;9.594;2022-10-19T10:49:35;95937.53;;;17.34;82.65
18201;BME280;9226;47.858;9.594;2022-10-19T10:52:14;95938.13;;;17.28;82.74
18201;BME280;9226;47.858;9.594;2022-10-19T10:54:58;95930.72;;;17.40;81.48
18201;BME280;9226;47.858;9.594;2022-10-19T10:57:28;95928.41;;;17.71;81.73
18201;BME280;9226;47.858;9.594;2022-10-19T11:00:10;95928.97;;;17.57;80.33
18201;BME280;9226;47.858;9.594;2022-10-19T11:02:49;95925.41;;;17.48;80.62
18201;BME280;9226;47.858;9.594;2022-10-19T11:05:31;95912.56;;;17.60;80.60
18201;BME280;9226;47.858;9.594;2022-10-19T11:10:53;95920.34;;;17.45;79.89
18201;BME280;9226;47.858;9.594;2022-10-19T11:13:36;95907.91;;;17.17;79.94
18201;BME280;9226;47.858;9.594;2022-10-19T11:16:09;95905.59;;;17.49;78.52
18201;BME280;9226;47.858;9.594;2022-10-19T11:18:46;95905.94;;;17.72;79.42
18201;BME280;9226;47.858;9.594;2022-10-19T11:24:07;95905.16;;;18.40;78.65
18201;BME280;9226;47.858;9.594;2022-10-19T11:26:50;95895.38;;;18.74;77.00
18201;BME280;9226;47.858;9.594;2022-10-19T11:34:48;95878.81;;;19.28;73.73
18201;BME280;9226;47.858;9.594;2022-10-19T11:37:29;95878.63;;;19.05;72.63
18201;BME280;9226;47.858;9.594;2022-10-19T11:40:12;95882.16;;;18.89;72.24
18201;BME280;9226;47.858;9.594;2022-10-19T11:56:49;95838.63;;;19.34;71.02
18201;BME280;9226;47.858;9.594;2022-10-19T12:04:59;95835.63;;;19.29;69.63
18201;BME280;9226;47.858;9.594;2022-10-19T12:07:35;95822.84;;;19.15;69.78
18201;BME280;9226;47.858;9.594;2022-10-19T12:13:02;95815.25;;;19.35;70.53
18201;BME280;9226;47.858;9.594;2022-10-19T12:15:34;95812.06;;;19.31;70.81
18201;BME280;9226;47.858;9.594;2022-10-19T12:21:02;95820.78;;;19.50;71.36
18201;BME280;9226;47.858;9.594;2022-10-19T12:23:37;95824.13;;;19.52;69.71
18201;BME280;9226;47.858;9.594;2022-10-19T12:26:05;95818.50;;;19.95;69.66
18201;BME280;9226;47.858;9.594;2022-10-19T12:28:34;95817.19;;;19.82;68.60
18201;BME280;9226;47.858;9.594;2022-10-19T12:31:01;95815.63;;;19.96;68.86
18201;BME280;9226;47.858;9.594;2022-10-19T12:44:42;95800.28;;;19.41;68.71
18201;BME280;9226;47.858;9.594;2022-10-19T12:47:17;95808.53;;;19.06;68.79
18201;BME280;9226;47.858;9.594;2022-10-19T12:49:43;95806.69;;;19.23;69.29
18201;BME280;9226;47.858;9.594;2022-10-19T12:52:10;95808.72;;;18.96;69.16
18201;BME280;9226;47.858;9.594;2022-10-19T12:54:38;95807.19;;;19.02;69.05
18201;BME280;9226;47.858;9.594;2022-10-19T12:57:20;95801.00;;;18.85;70.02
18201;BME280;9226;47.858;9.594;2022-10-19T12:59:57;95798.94;;;18.71;70.15
18201;BME280;9226;47.858;9.594;2022-10-19T13:02:28;95787.22;;;18.96;70.47
18201;BME280;9226;47.858;9.594;2022-10-19T13:04:55;95790.06;;;18.95;69.40
18201;BME280;9226;47.858;9.594;2022-10-19T13:07:20;95782.47;;;18.74;69.85
18201;BME280;9226;47.858;9.594;2022-10-19T13:09:46;95780.47;;;18.84;69.76
18201;BME280;9226;47.858;9.594;2022-10-19T13:17:08;95777.25;;;18.64;70.82
18201;BME280;9226;47.858;9.594;2022-10-19T13:19:34;95770.69;;;18.58;71.05
18201;BME280;9226;47.858;9.594;2022-10-19T13:24:33;95774.75;;;18.95;70.09
18201;BME280;9226;47.858;9.594;2022-10-19T13:32:34;95755.28;;;18.85;70.34
18201;BME280;9226;47.858;9.594;2022-10-19T13:43:26;95751.19;;;18.32;70.33
18201;BME280;9226;47.858;9.594;2022-10-19T13:46:15;95736.41;;;18.36;69.59
18201;BME280;9226;47.858;9.594;2022-10-19T14:02:25;95727.34;;;18.37;70.43
18201;BME280;9226;47.858;9.594;2022-10-19T14:07:57;95716.63;;;18.70;70.32
18201;BME280;9226;47.858;9.594;2022-10-19T14:10:26;95715.09;;;18.67;70.66
18201;BME280;9226;47.858;9.594;2022-10-19T14:12:51;95721.13;;;18.61;70.97
18201;BME280;9226;47.858;9.594;2022-10-19T14:17:43;95721.13;;;18.53;71.59
18201;BME280;9226;47.858;9.594;2022-10-19T14:22:50;95713.59;;;18.48;71.87
18201;BME280;9226;47.858;9.594;2022-10-19T14:25:17;95709.72;;;18.51;71.74
18201;BME280;9226;47.858;9.594;2022-10-19T14:27:44;95702.00;;;18.31;71.50
18201;BME280;9226;47.858;9.594;2022-10-19T14:30:39;95690.41;;;18.39;71.40
18201;BME280;9226;47.858;9.594;2022-10-19T14:33:09;95695.94;;;18.21;70.99
18201;BME280;9226;47.858;9.594;2022-10-19T14:35:40;95698.22;;;17.99;71.28
18201;BME280;9226;47.858;9.594;2022-10-19T14:40:49;95698.44;;;18.14;71.22
18201;BME280;9226;47.858;9.594;2022-10-19T14:43:32;95694.81;;;17.81;72.16
18201;BME280;9226;47.858;9.594;2022-10-19T14:48:35;95700.53;;;17.86;71.75
18201;BME280;9226;47.858;9.594;2022-10-19T14:51:06;95690.34;;;17.89;72.15
18201;BME280;9226;47.858;9.594;2022-10-19T14:53:46;95683.94;;;17.82;72.03
18201;BME280;9226;47.858;9.594;2022-10-19T14:56:19;95691.25;;;17.72;72.02
18201;BME280;9226;47.858;9.594;2022-10-19T14:58:47;95685.72;;;17.73;71.80
18201;BME280;9226;47.858;9.594;2022-10-19T15:01:17;95682.69;;;17.60;72.78
18201;BME280;9226;47.858;9.594;2022-10-19T15:03:44;95678.44;;;17.49;73.25
18201;BME280;9226;47.858;9.594;2022-10-19T15:06:23;95679.84;;;17.62;73.10
18201;BME280;9226;47.858;9.594;2022-10-19T15:09:02;95684.72;;;17.66;73.12
18201;BME280;9226;47.858;9.594;2022-10-19T15:11:39;95678.44;;;17.41;73.97
18201;BME280;9226;47.858;9.594;2022-10-19T15:14:08;95676.88;;;17.30;74.21
18201;BME280;9226;47.858;9.594;2022-10-19T15:19:32;95680.63;;;17.11;74.26
18201;BME280;9226;47.858;9.594;2022-10-19T15:22:26;95679.88;;;17.27;73.70
18201;BME280;9226;47.858;9.594;2022-10-19T15:24:55;95676.75;;;17.14;74.67
18201;BME280;9226;47.858;9.594;2022-10-19T15:27:22;95674.78;;;17.16;74.45
18201;BME280;9226;47.858;9.594;2022-10-19T15:30:36;95674.88;;;17.06;74.85
18201;BME280;9226;47.858;9.594;2022-10-19T15:35:32;95675.53;;;17.00;76.12
18201;BME280;9226;47.858;9.594;2022-10-19T15:38:20;95667.50;;;17.00;75.87
18201;BME280;9226;47.858;9.594;2022-10-19T15:40:58;95668.31;;;17.27;75.07
18201;BME280;9226;47.858;9.594;2022-10-19T15:46:03;95669.97;;;17.28;75.32
18201;BME280;9226;47.858;9.594;2022-10-19T15:53:55;95668.66;;;16.97;75.95
18201;BME280;9226;47.858;9.594;2022-10-19T15:56:23;95670.06;;;17.10;75.22
18201;BME280;9226;47.858;9.594;2022-10-19T15:58:54;95664.06;;;16.90;75.91
18201;BME280;9226;47.858;9.594;2022-10-19T16:01:22;95662.00;;;16.83;75.74
18201;BME280;9226;47.858;9.594;2022-10-19T16:03:48;95660.72;;;16.70;76.53